createdAt,value
2022-09-16T00:02:42.921Z,25.72
2022-09-16T00:05:50.127Z,25.92
2022-09-16T00:08:55.395Z,25.83
2022-09-16T00:11:58.606Z,26.07
2022-09-16T00:15:01.766Z,25.66
2022-09-16T00:18:05.212Z,25.84
2022-09-16T00:21:11.245Z,26.00
2022-09-16T00:24:15.725Z,26.02
2022-09-16T00:27:19.031Z,26.07
2022-09-16T00:30:22.197Z,25.85
2022-09-16T00:33:25.905Z,25.66
2022-09-16T00:36:31.103Z,25.61
2022-09-16T00:39:34.489Z,25.66
2022-09-16T00:42:41.847Z,25.55
2022-09-16T00:45:47.858Z,25.60
2022-09-16T00:48:51.737Z,25.49
2022-09-16T00:52:01.979Z,25.45
2022-09-16T00:55:09.760Z,25.42
2022-09-16T00:58:19.692Z,25.63
2022-09-16T01:01:23.588Z,25.55
2022-09-16T01:04:30.697Z,25.70
2022-09-16T01:07:41.285Z,25.81
2022-09-16T01:10:44.715Z,25.95
2022-09-16T01:13:48.677Z,25.58
2022-09-16T01:16:59.711Z,25.64
2022-09-16T01:20:35.921Z,25.74
2022-09-16T01:24:14.621Z,25.79
2022-09-16T01:27:56.053Z,25.43
2022-09-16T01:31:13.011Z,25.57
2022-09-16T01:34:25.460Z,25.61
2022-09-16T01:37:39.125Z,25.67
2022-09-16T01:40:51.008Z,25.21
2022-09-16T01:44:00.883Z,25.11
2022-09-16T01:47:12.000Z,25.12
2022-09-16T01:50:22.796Z,25.19
2022-09-16T01:53:34.039Z,25.21
2022-09-16T01:56:44.714Z,25.34
2022-09-16T01:59:53.750Z,25.15
2022-09-16T02:03:03.497Z,25.11
2022-09-16T02:06:09.744Z,25.02
2022-09-16T02:09:17.549Z,25.16
2022-09-16T02:12:26.595Z,25.19
2022-09-16T02:15:31.631Z,25.15
2022-09-16T02:18:41.063Z,24.87
2022-09-16T02:21:46.068Z,24.78
2022-09-16T02:24:50.036Z,24.94
2022-09-16T02:27:55.326Z,25.04
2022-09-16T02:31:02.436Z,25.09
2022-09-16T02:34:14.015Z,25.08
2022-09-16T02:37:19.966Z,25.18
2022-09-16T02:40:27.049Z,24.53
2022-09-16T02:43:31.035Z,24.46
2022-09-16T02:46:40.991Z,24.75
2022-09-16T02:49:53.068Z,24.39
2022-09-16T02:53:01.498Z,24.58
2022-09-16T02:56:13.466Z,23.95
2022-09-16T02:59:18.018Z,24.35
2022-09-16T03:02:21.623Z,24.70
2022-09-16T03:05:30.155Z,24.72
2022-09-16T03:08:33.699Z,24.56
2022-09-16T03:11:58.325Z,24.72
2022-09-16T03:15:15.707Z,24.61
2022-09-16T03:18:34.834Z,24.60
2022-09-16T03:21:45.877Z,24.38
2022-09-16T03:24:58.150Z,24.39
2022-09-16T03:28:09.709Z,24.24
2022-09-16T03:31:19.360Z,24.26
2022-09-16T03:34:28.325Z,24.27
2022-09-16T03:37:35.716Z,24.34
2022-09-16T03:40:39.612Z,24.20
2022-09-16T03:43:53.080Z,24.09
2022-09-16T03:46:57.149Z,24.39
2022-09-16T03:50:00.340Z,24.56
2022-09-16T03:53:05.500Z,24.27
2022-09-16T03:56:09.064Z,24.41
2022-09-16T03:59:12.301Z,24.39
2022-09-16T04:02:15.510Z,24.47
2022-09-16T04:05:18.835Z,24.23
2022-09-16T04:08:23.927Z,24.18
2022-09-16T04:11:29.769Z,23.98
2022-09-16T04:14:33.067Z,23.88
2022-09-16T04:17:36.516Z,24.08
2022-09-16T04:20:40.179Z,23.94
2022-09-16T04:23:44.824Z,23.98
2022-09-16T04:26:48.109Z,24.12
2022-09-16T04:29:51.359Z,24.10
2022-09-16T04:32:55.456Z,24.04
2022-09-16T04:36:04.597Z,24.26
2022-09-16T04:39:09.356Z,24.01
2022-09-16T04:42:13.365Z,24.10
2022-09-16T04:45:16.714Z,24.44
2022-09-16T04:48:19.996Z,24.71
2022-09-16T04:51:25.639Z,24.23
2022-09-16T04:54:30.347Z,23.92
2022-09-16T04:57:34.095Z,24.54
2022-09-16T05:00:37.309Z,24.33
2022-09-16T05:03:41.226Z,23.94
2022-09-16T05:06:50.700Z,24.27
2022-09-16T05:09:55.311Z,24.39
2022-09-16T05:12:58.569Z,24.19
2022-09-16T05:16:07.461Z,24.12
2022-09-16T05:19:13.261Z,24.38
2022-09-16T05:22:16.449Z,24.41
2022-09-16T05:25:21.409Z,24.49
2022-09-16T05:28:24.617Z,24.81
2022-09-16T05:31:29.248Z,25.19
2022-09-16T05:34:32.673Z,25.33
2022-09-16T05:37:35.866Z,25.60
2022-09-16T05:40:40.517Z,25.88
2022-09-16T05:43:43.981Z,26.22
2022-09-16T05:46:47.186Z,26.55
2022-09-16T05:49:50.437Z,26.26
2022-09-16T05:52:53.607Z,26.11
2022-09-16T05:55:59.692Z,26.39
2022-09-16T05:59:03.290Z,26.61
2022-09-16T06:02:06.614Z,27.18
2022-09-16T06:05:10.159Z,27.49
2022-09-16T06:08:13.411Z,28.04
2022-09-16T06:11:18.282Z,27.77
2022-09-16T06:14:22.755Z,28.07
2022-09-16T06:17:25.957Z,27.90
2022-09-16T06:20:29.236Z,28.05
2022-09-16T06:23:32.560Z,28.48
2022-09-16T06:26:38.929Z,28.28
2022-09-16T06:29:42.127Z,28.34
2022-09-16T06:32:45.405Z,28.41
2022-09-16T06:35:48.615Z,28.77
2022-09-16T06:38:52.333Z,28.98
2022-09-16T06:41:56.990Z,29.40
2022-09-16T06:45:12.768Z,29.80
2022-09-16T06:48:16.019Z,29.72
2022-09-16T06:51:22.931Z,29.77
2022-09-16T06:54:26.288Z,29.67
2022-09-16T06:57:32.242Z,30.08
2022-09-16T07:00:35.496Z,30.11
2022-09-16T07:03:39.998Z,30.34
2022-09-16T07:07:09.228Z,30.54
2022-09-16T07:10:07.624Z,30.02
2022-09-16T07:13:12.205Z,30.55
2022-09-16T07:16:19.119Z,30.73
2022-09-16T07:19:22.459Z,31.01
2022-09-16T07:22:25.666Z,30.96
2022-09-16T07:25:32.465Z,31.06
2022-09-16T07:28:41.120Z,30.95
2022-09-16T07:31:44.587Z,31.13
2022-09-16T07:34:47.793Z,31.24
2022-09-16T07:37:51.000Z,31.60
2022-09-16T07:40:54.255Z,31.78
2022-09-16T07:44:00.697Z,32.18
2022-09-16T07:47:04.052Z,32.25
2022-09-16T07:50:08.349Z,31.99
2022-09-16T07:53:11.547Z,31.92
2022-09-16T07:56:17.655Z,32.06
2022-09-16T07:59:22.277Z,32.22
2022-09-16T08:02:25.647Z,32.41
2022-09-16T08:05:28.917Z,32.59
2022-09-16T08:08:32.338Z,32.66
2022-09-16T08:11:35.648Z,33.08
2022-09-16T08:14:40.320Z,33.45
2022-09-16T08:17:43.656Z,33.48
2022-09-16T08:20:46.910Z,33.10
2022-09-16T08:23:50.578Z,33.11
2022-09-16T08:30:05.059Z,34.05
2022-09-16T08:33:08.537Z,33.66
2022-09-16T08:36:15.887Z,33.15
2022-09-16T08:39:19.686Z,33.32
2022-09-16T08:42:33.198Z,33.83
2022-09-16T08:45:45.733Z,34.17
2022-09-16T08:48:57.086Z,34.39
2022-09-16T08:52:03.875Z,34.64
2022-09-16T08:55:12.043Z,34.87
2022-09-16T08:58:18.717Z,35.01
2022-09-16T09:01:31.140Z,35.08
2022-09-16T09:04:34.695Z,35.18
2022-09-16T09:07:54.827Z,35.40
2022-09-16T09:11:03.423Z,35.41
2022-09-16T09:14:29.940Z,35.67
2022-09-16T09:17:49.426Z,36.13
2022-09-16T09:21:00.541Z,35.88
2022-09-16T09:24:28.439Z,36.52
2022-09-16T09:27:41.854Z,35.95
2022-09-16T09:30:53.718Z,35.29
2022-09-16T09:34:13.293Z,34.72
2022-09-16T09:37:36.975Z,34.60
2022-09-16T09:40:45.102Z,34.76
2022-09-16T09:43:54.086Z,34.94
2022-09-16T09:47:03.010Z,34.91
2022-09-16T09:50:17.886Z,34.54
2022-09-16T09:53:25.325Z,34.65
2022-09-16T09:56:33.274Z,34.09
2022-09-16T09:59:42.593Z,34.09
2022-09-16T10:02:49.857Z,34.16
2022-09-16T10:05:54.819Z,33.95
2022-09-16T10:09:00.308Z,34.31
2022-09-16T10:12:04.638Z,34.08
2022-09-16T10:15:20.271Z,34.23
2022-09-16T10:18:29.805Z,34.10
2022-09-16T10:21:45.938Z,34.23
2022-09-16T10:24:55.984Z,34.37
2022-09-16T10:28:01.466Z,34.30
2022-09-16T10:31:08.258Z,34.38
2022-09-16T10:34:19.483Z,34.33
2022-09-16T10:37:27.929Z,34.74
2022-09-16T10:40:32.624Z,34.50
2022-09-16T10:43:39.065Z,34.90
2022-09-16T10:46:53.095Z,34.81
2022-09-16T10:49:58.473Z,34.88
2022-09-16T10:53:03.214Z,35.16
2022-09-16T10:56:08.564Z,35.17
2022-09-16T10:59:13.310Z,34.95
2022-09-16T11:02:32.436Z,35.71
2022-09-16T11:05:45.887Z,35.93
2022-09-16T11:09:01.307Z,36.34
2022-09-16T11:12:28.000Z,36.37
2022-09-16T11:15:44.324Z,36.59
2022-09-16T11:18:57.479Z,36.71
2022-09-16T11:22:13.563Z,36.87
2022-09-16T11:25:30.760Z,37.18
2022-09-16T11:28:56.624Z,37.21
2022-09-16T11:32:11.103Z,36.74
2022-09-16T11:35:34.929Z,36.57
2022-09-16T11:38:46.930Z,36.31
2022-09-16T11:42:02.539Z,36.59
2022-09-16T11:45:22.033Z,36.69
2022-09-16T11:48:42.672Z,36.54
2022-09-16T11:52:02.638Z,36.60
2022-09-16T11:55:23.839Z,36.31
2022-09-16T11:58:45.357Z,36.37
2022-09-16T12:01:54.075Z,36.09
2022-09-16T12:05:03.230Z,36.02
2022-09-16T12:08:12.309Z,36.16
2022-09-16T12:11:33.007Z,36.25
2022-09-16T12:14:40.266Z,36.29
2022-09-16T12:17:52.117Z,36.64
2022-09-16T12:21:04.247Z,36.88
2022-09-16T12:24:13.449Z,36.81
2022-09-16T12:27:28.891Z,36.85
2022-09-16T12:30:38.796Z,36.77
2022-09-16T12:33:47.341Z,36.94
2022-09-16T12:37:00.552Z,36.95
2022-09-16T12:40:05.866Z,36.30
2022-09-16T12:43:37.185Z,35.92
2022-09-16T12:47:14.367Z,35.82
2022-09-16T12:50:41.088Z,35.22
2022-09-16T12:53:57.635Z,35.04
2022-09-16T12:57:26.008Z,35.41
2022-09-16T13:00:33.862Z,35.54
2022-09-16T13:03:43.973Z,35.11
2022-09-16T13:06:50.325Z,34.81
2022-09-16T13:10:03.172Z,34.70
2022-09-16T13:13:08.852Z,34.80
2022-09-16T13:16:12.653Z,34.94
2022-09-16T13:19:42.387Z,35.08
2022-09-16T13:22:50.254Z,34.30
2022-09-16T13:26:00.529Z,34.50
2022-09-16T13:29:03.780Z,34.15
2022-09-16T13:32:07.114Z,34.38
2022-09-16T13:35:35.832Z,33.84
2022-09-16T13:38:40.801Z,33.49
2022-09-16T13:41:46.887Z,33.82
2022-09-16T13:44:50.212Z,33.66
2022-09-16T13:47:54.113Z,33.44
2022-09-16T13:51:00.779Z,33.84
2022-09-16T13:54:04.638Z,34.11
2022-09-16T13:57:22.998Z,34.10
2022-09-16T14:00:32.370Z,33.99
2022-09-16T14:03:47.725Z,33.36
2022-09-16T14:07:07.635Z,33.44
2022-09-16T14:10:18.314Z,33.07
2022-09-16T14:13:23.486Z,32.84
2022-09-16T14:16:29.280Z,32.57
2022-09-16T14:19:36.963Z,32.65
2022-09-16T14:22:44.482Z,32.07
2022-09-16T14:25:49.351Z,32.27
2022-09-16T14:29:04.092Z,32.34
2022-09-16T14:32:14.830Z,31.96
2022-09-16T14:35:21.005Z,32.17
2022-09-16T14:41:59.611Z,31.99
2022-09-16T14:45:04.204Z,32.30
2022-09-16T14:48:10.437Z,32.22
2022-09-16T14:51:21.796Z,32.40
2022-09-16T14:54:28.344Z,32.22
2022-09-16T14:57:33.471Z,32.30
2022-09-16T15:00:44.316Z,32.48
2022-09-16T15:03:52.937Z,32.42
2022-09-16T15:07:03.974Z,32.40
2022-09-16T15:10:18.084Z,32.72
2022-09-16T15:13:24.217Z,32.49
2022-09-16T15:16:28.523Z,32.27
2022-09-16T15:19:35.431Z,32.03
2022-09-16T15:22:41.738Z,31.98
2022-09-16T15:25:54.872Z,31.90
2022-09-16T15:29:00.732Z,31.92
2022-09-16T15:32:19.595Z,31.72
2022-09-16T15:35:25.233Z,31.52
2022-09-16T15:38:29.633Z,31.19
2022-09-16T15:41:34.419Z,31.32
2022-09-16T15:44:38.638Z,31.19
2022-09-16T15:47:59.447Z,31.05
2022-09-16T15:51:06.809Z,30.91
2022-09-16T15:54:18.839Z,30.92
2022-09-16T15:57:31.766Z,30.75
2022-09-16T16:00:59.361Z,31.04
2022-09-16T16:04:04.664Z,30.93
2022-09-16T16:07:09.013Z,30.54
2022-09-16T16:10:15.196Z,30.49
2022-09-16T16:13:19.818Z,30.68
2022-09-16T16:16:23.243Z,30.36
2022-09-16T16:19:26.831Z,30.46
2022-09-16T16:22:30.003Z,30.43
2022-09-16T16:25:33.492Z,30.30
2022-09-16T16:28:39.177Z,30.14
2022-09-16T16:31:42.422Z,30.14
2022-09-16T16:34:47.850Z,30.20
2022-09-16T16:37:51.036Z,30.17
2022-09-16T16:40:54.242Z,30.06
2022-09-16T16:43:58.976Z,30.01
2022-09-16T16:47:02.693Z,29.81
2022-09-16T16:50:06.706Z,29.73
2022-09-16T16:53:10.051Z,29.54
2022-09-16T16:56:15.652Z,29.49
2022-09-16T16:59:21.304Z,29.58
2022-09-16T17:02:24.798Z,29.64
2022-09-16T17:05:28.173Z,29.46
2022-09-16T17:08:31.414Z,29.47
2022-09-16T17:11:35.163Z,29.24
2022-09-16T17:14:39.701Z,29.37
2022-09-16T17:17:42.962Z,29.38
2022-09-16T17:20:46.121Z,29.20
2022-09-16T17:23:49.498Z,29.25
2022-09-16T17:26:52.739Z,29.15
2022-09-16T17:29:57.314Z,29.11
2022-09-16T17:33:00.585Z,29.13
2022-09-16T17:36:05.946Z,29.21
2022-09-16T17:39:13.505Z,29.25
2022-09-16T17:42:17.017Z,28.92
2022-09-16T17:45:21.612Z,28.92
2022-09-16T17:48:24.884Z,29.07
2022-09-16T17:51:28.409Z,28.99
2022-09-16T17:54:31.602Z,29.00
2022-09-16T17:57:34.867Z,28.92
2022-09-16T18:00:39.979Z,28.70
2022-09-16T18:03:45.726Z,28.88
2022-09-16T18:06:48.954Z,28.80
2022-09-16T18:09:52.226Z,28.45
2022-09-16T18:12:55.460Z,28.60
2022-09-16T18:16:05.124Z,28.65
2022-09-16T18:19:08.706Z,28.62
2022-09-16T18:22:11.995Z,28.62
2022-09-16T18:25:15.388Z,28.59
2022-09-16T18:28:18.644Z,28.44
2022-09-16T18:31:24.601Z,28.10
2022-09-16T18:34:32.649Z,28.35
2022-09-16T18:37:36.662Z,28.10
2022-09-16T18:40:40.004Z,28.34
2022-09-16T18:43:45.237Z,28.27
2022-09-16T18:46:50.028Z,28.28
2022-09-16T18:49:53.292Z,28.33
2022-09-16T18:52:56.450Z,28.29
2022-09-16T18:56:00.369Z,28.33
2022-09-16T18:59:23.437Z,28.23
2022-09-16T19:02:28.728Z,28.28
2022-09-16T19:05:31.829Z,28.09
2022-09-16T19:08:36.083Z,27.94
2022-09-16T19:11:40.151Z,28.11
2022-09-16T19:14:43.620Z,27.73
2022-09-16T19:17:48.264Z,28.08
2022-09-16T19:20:51.605Z,27.90
2022-09-16T19:23:57.313Z,27.58
2022-09-16T19:27:00.545Z,27.66
2022-09-16T19:30:04.086Z,27.63
2022-09-16T19:33:08.737Z,27.69
2022-09-16T19:36:13.327Z,27.93
2022-09-16T19:39:16.633Z,28.10
2022-09-16T19:42:19.876Z,27.99
2022-09-16T19:45:27.712Z,27.92
2022-09-16T19:48:33.752Z,28.03
2022-09-16T19:51:37.827Z,28.09
2022-09-16T19:54:41.075Z,27.58
2022-09-16T19:57:44.287Z,27.90
2022-09-16T20:00:56.309Z,27.83
2022-09-16T20:04:01.684Z,28.04
2022-09-16T20:07:05.912Z,27.89
2022-09-16T20:10:09.757Z,27.79
2022-09-16T20:13:13.497Z,27.71
2022-09-16T20:16:17.513Z,27.61
2022-09-16T20:19:22.124Z,27.74
2022-09-16T20:22:25.442Z,27.76
2022-09-16T20:25:56.638Z,27.76
2022-09-16T20:29:00.513Z,27.67
2022-09-16T20:32:04.127Z,27.64
2022-09-16T20:35:09.828Z,27.42
2022-09-16T20:38:13.109Z,27.13
2022-09-16T20:41:19.100Z,27.04
2022-09-16T20:44:22.349Z,27.39
2022-09-16T20:47:29.234Z,27.10
2022-09-16T20:50:33.951Z,27.39
2022-09-16T20:53:38.258Z,27.57
2022-09-16T20:56:43.396Z,27.61
2022-09-16T20:59:46.643Z,27.55
2022-09-16T21:02:49.920Z,27.64
2022-09-16T21:06:00.783Z,27.62
2022-09-16T21:09:06.808Z,27.59
2022-09-16T21:12:09.958Z,27.68
2022-09-16T21:15:13.170Z,27.78
2022-09-16T21:18:16.418Z,27.66
2022-09-16T21:21:21.059Z,27.45
2022-09-16T21:24:24.257Z,27.09
2022-09-16T21:27:27.458Z,26.91
2022-09-16T21:30:30.633Z,26.58
2022-09-16T21:33:35.997Z,26.85
2022-09-16T21:36:41.093Z,27.02
2022-09-16T21:39:44.255Z,27.09
2022-09-16T21:42:47.467Z,26.81
2022-09-16T21:45:50.640Z,26.86
2022-09-16T21:48:56.326Z,26.66
2022-09-16T21:52:00.880Z,26.98
2022-09-16T21:55:04.237Z,26.97
2022-09-16T21:58:07.701Z,26.91
2022-09-16T22:01:13.329Z,27.08
2022-09-16T22:04:18.227Z,27.11
2022-09-16T22:07:22.847Z,26.84
2022-09-16T22:10:26.017Z,26.74
2022-09-16T22:13:31.017Z,26.93
2022-09-16T22:16:37.218Z,26.89
2022-09-16T22:19:40.438Z,26.79
2022-09-16T22:22:45.076Z,26.70
2022-09-16T22:25:48.618Z,26.79
2022-09-16T22:28:52.272Z,26.69
2022-09-16T22:31:55.501Z,26.82
2022-09-16T22:34:58.733Z,26.94
2022-09-16T22:38:04.167Z,26.72
2022-09-16T22:41:09.338Z,26.68
2022-09-16T22:44:12.901Z,26.84
2022-09-16T22:47:16.131Z,26.67
2022-09-16T22:50:19.241Z,26.66
2022-09-16T22:53:24.789Z,26.33
2022-09-16T22:56:31.996Z,26.39
2022-09-16T22:59:35.469Z,26.41
2022-09-16T23:02:38.674Z,26.41
2022-09-16T23:05:42.083Z,26.20
2022-09-16T23:08:47.147Z,26.02
2022-09-16T23:11:50.447Z,26.14
2022-09-16T23:14:53.635Z,26.40
2022-09-16T23:17:56.894Z,26.34
2022-09-16T23:21:01.509Z,26.25
2022-09-16T23:24:08.009Z,26.12
2022-09-16T23:27:11.185Z,26.39
2022-09-16T23:30:14.767Z,26.27
2022-09-16T23:33:17.988Z,26.06
2022-09-16T23:36:21.359Z,26.29
2022-09-16T23:39:26.205Z,26.23
2022-09-16T23:42:29.417Z,26.41
2022-09-16T23:45:32.641Z,26.40
2022-09-16T23:48:35.820Z,25.80
2022-09-16T23:51:39.288Z,26.13
2022-09-16T23:54:43.891Z,26.19
2022-09-16T23:57:47.267Z,26.20
